createdAt,value
2023-10-07T00:00:49.072Z,7.00
2023-10-07T00:03:17.977Z,6.90
2023-10-07T00:05:48.632Z,6.70
2023-10-07T00:08:21.610Z,6.60
2023-10-07T00:10:50.559Z,6.50
2023-10-07T00:13:21.358Z,6.50
2023-10-07T00:15:52.030Z,6.60
2023-10-07T00:18:24.382Z,6.80
2023-10-07T00:20:54.461Z,6.80
2023-10-07T00:23:23.484Z,6.70
2023-10-07T00:25:56.028Z,6.50
2023-10-07T00:28:34.414Z,6.40
2023-10-07T00:31:06.802Z,6.50
2023-10-07T00:33:52.610Z,6.40
2023-10-07T00:36:43.581Z,6.40
2023-10-07T00:39:13.679Z,6.40
2023-10-07T00:41:46.814Z,6.40
2023-10-07T00:44:22.732Z,6.70
2023-10-07T00:47:04.229Z,6.90
2023-10-07T00:49:42.564Z,7.10
2023-10-07T00:52:14.855Z,7.00
2023-10-07T00:54:51.776Z,6.90
2023-10-07T00:57:26.044Z,7.00
2023-10-07T00:59:56.615Z,7.00
2023-10-07T01:02:32.647Z,6.90
2023-10-07T01:05:13.966Z,6.70
2023-10-07T01:07:49.639Z,6.30
2023-10-07T01:10:16.445Z,6.10
2023-10-07T01:12:46.003Z,5.90
2023-10-07T01:15:25.636Z,5.80
2023-10-07T01:18:06.953Z,5.60
2023-10-07T01:20:52.692Z,5.50
2023-10-07T01:23:33.863Z,5.40
2023-10-07T01:26:01.449Z,5.70
2023-10-07T01:28:28.477Z,5.70
2023-10-07T01:31:15.534Z,5.60
2023-10-07T01:33:47.849Z,5.40
2023-10-07T01:36:20.439Z,5.40
2023-10-07T01:38:54.481Z,5.70
2023-10-07T01:41:23.322Z,5.90
2023-10-07T01:44:01.452Z,6.20
2023-10-07T01:46:33.946Z,6.30
2023-10-07T01:49:05.801Z,6.30
2023-10-07T01:51:32.910Z,6.20
2023-10-07T01:54:05.140Z,6.00
2023-10-07T01:56:33.276Z,6.20
2023-10-07T01:59:18.880Z,6.30
2023-10-07T02:01:59.686Z,6.10
2023-10-07T02:04:29.711Z,6.00
2023-10-07T02:07:00.168Z,5.80
2023-10-07T02:09:28.542Z,6.00
2023-10-07T02:12:02.529Z,5.90
2023-10-07T02:14:29.745Z,6.00
2023-10-07T02:17:00.804Z,6.00
2023-10-07T02:19:33.978Z,6.10
2023-10-07T02:22:05.095Z,6.10
2023-10-07T02:24:33.221Z,6.20
2023-10-07T02:27:08.084Z,6.10
2023-10-07T02:29:35.772Z,5.80
2023-10-07T02:32:16.491Z,5.50
2023-10-07T02:34:52.667Z,5.40
2023-10-07T02:37:22.602Z,5.30
2023-10-07T02:39:52.635Z,5.10
2023-10-07T02:42:23.138Z,5.20
2023-10-07T02:45:21.176Z,5.40
2023-10-07T02:47:52.240Z,5.30
2023-10-07T02:50:19.653Z,5.50
2023-10-07T02:52:50.775Z,5.50
2023-10-07T02:55:17.597Z,5.60
2023-10-07T02:57:46.202Z,5.40
2023-10-07T03:00:30.607Z,5.30
2023-10-07T03:03:21.131Z,5.10
2023-10-07T03:05:59.501Z,5.10
2023-10-07T03:08:46.614Z,5.10
2023-10-07T03:11:21.917Z,5.00
2023-10-07T03:13:50.884Z,4.90
2023-10-07T03:16:22.036Z,4.70
2023-10-07T03:18:57.890Z,4.50
2023-10-07T03:21:44.722Z,4.40
2023-10-07T03:24:13.676Z,4.30
2023-10-07T03:26:42.785Z,4.40
2023-10-07T03:29:09.787Z,4.80
2023-10-07T03:31:48.965Z,4.70
2023-10-07T03:34:15.877Z,4.70
2023-10-07T03:36:47.299Z,4.60
2023-10-07T03:39:16.056Z,4.50
2023-10-07T03:41:49.076Z,4.40
2023-10-07T03:44:24.272Z,4.30
2023-10-07T03:46:56.079Z,4.40
2023-10-07T03:49:23.916Z,4.90
2023-10-07T03:52:04.532Z,4.80
2023-10-07T03:54:32.023Z,4.70
2023-10-07T03:57:01.699Z,4.90
2023-10-07T03:59:40.793Z,4.90
2023-10-07T04:02:30.996Z,4.70
2023-10-07T04:05:01.976Z,4.50
2023-10-07T04:07:30.945Z,4.30
2023-10-07T04:10:14.145Z,4.20
2023-10-07T04:12:41.406Z,4.20
2023-10-07T04:15:13.220Z,4.20
2023-10-07T04:17:40.232Z,4.10
2023-10-07T04:20:19.560Z,4.20
2023-10-07T04:23:05.803Z,4.40
2023-10-07T04:25:32.677Z,4.20
2023-10-07T04:27:59.674Z,4.10
2023-10-07T04:30:29.648Z,4.10
2023-10-07T04:33:02.079Z,4.20
2023-10-07T04:35:33.864Z,4.10
2023-10-07T04:38:10.656Z,4.10
2023-10-07T04:40:56.961Z,4.20
2023-10-07T04:43:26.745Z,4.50
2023-10-07T04:45:54.942Z,4.50
2023-10-07T04:48:41.965Z,4.40
2023-10-07T04:51:13.243Z,4.40
2023-10-07T04:53:40.740Z,4.30
2023-10-07T04:56:08.707Z,4.40
2023-10-07T04:58:40.569Z,4.30
2023-10-07T05:01:23.728Z,4.30
2023-10-07T05:03:56.738Z,4.40
2023-10-07T05:06:24.011Z,4.80
2023-10-07T05:08:50.819Z,4.90
2023-10-07T05:11:20.624Z,5.00
2023-10-07T05:13:48.403Z,5.10
2023-10-07T05:16:15.940Z,5.00
2023-10-07T05:18:43.684Z,4.90
2023-10-07T05:21:12.339Z,4.80
2023-10-07T05:23:43.071Z,4.80
2023-10-07T05:26:10.657Z,4.90
2023-10-07T05:28:37.933Z,4.90
2023-10-07T05:31:05.090Z,5.00
2023-10-07T05:33:35.392Z,5.10
2023-10-07T05:36:09.874Z,5.00
2023-10-07T05:38:37.777Z,4.90
2023-10-07T05:41:07.449Z,4.90
2023-10-07T05:43:34.597Z,4.90
2023-10-07T05:46:01.609Z,4.80
2023-10-07T05:48:28.481Z,4.90
2023-10-07T05:50:55.700Z,4.90
2023-10-07T05:53:22.902Z,4.70
2023-10-07T05:55:49.794Z,5.00
2023-10-07T05:58:16.786Z,5.00
2023-10-07T06:00:43.547Z,5.80
2023-10-07T06:03:13.262Z,6.60
2023-10-07T06:05:40.320Z,6.80
2023-10-07T06:08:08.791Z,7.20
2023-10-07T06:10:35.719Z,6.90
2023-10-07T06:13:09.730Z,6.80
2023-10-07T06:15:40.847Z,6.70
2023-10-07T06:18:08.569Z,6.70
2023-10-07T06:20:47.820Z,6.70
2023-10-07T06:23:16.027Z,6.80
2023-10-07T06:25:50.197Z,7.00
2023-10-07T06:28:36.732Z,7.00
2023-10-07T06:31:16.050Z,7.20
2023-10-07T06:33:44.461Z,7.80
2023-10-07T06:36:13.804Z,9.10
2023-10-07T06:38:59.777Z,10.90
2023-10-07T06:41:31.515Z,11.80
2023-10-07T06:44:09.800Z,13.90
2023-10-07T06:46:43.603Z,14.40
2023-10-07T06:49:19.436Z,14.20
2023-10-07T06:51:52.139Z,15.10
2023-10-07T06:54:20.867Z,16.30
2023-10-07T06:56:50.303Z,17.40
2023-10-07T06:59:17.673Z,18.00
2023-10-07T07:01:44.525Z,18.90
2023-10-07T07:04:12.680Z,19.20
2023-10-07T07:06:47.581Z,19.80
2023-10-07T07:09:36.480Z,19.00
2023-10-07T07:12:10.239Z,19.60
2023-10-07T07:14:37.987Z,17.80
2023-10-07T07:17:26.201Z,17.30
2023-10-07T07:20:12.086Z,17.20
2023-10-07T07:22:45.929Z,16.50
2023-10-07T07:25:24.031Z,16.70
2023-10-07T07:27:54.518Z,16.40
2023-10-07T07:30:31.376Z,16.50
2023-10-07T07:33:13.279Z,16.10
2023-10-07T07:35:42.367Z,16.10
2023-10-07T07:38:20.854Z,17.20
2023-10-07T07:40:50.757Z,18.80
2023-10-07T07:43:20.829Z,19.40
2023-10-07T07:45:48.226Z,19.60
2023-10-07T07:48:17.235Z,19.90
2023-10-07T07:50:44.093Z,20.00
2023-10-07T07:53:14.103Z,20.80
2023-10-07T07:55:47.290Z,21.40
2023-10-07T07:58:14.368Z,21.50
2023-10-07T08:00:59.823Z,21.60
2023-10-07T08:03:27.252Z,21.70
2023-10-07T08:05:55.285Z,21.40
2023-10-07T08:08:30.972Z,21.20
2023-10-07T08:11:00.500Z,19.70
2023-10-07T08:13:29.012Z,18.80
2023-10-07T08:15:56.708Z,18.60
2023-10-07T08:18:30.212Z,18.50
2023-10-07T08:21:00.669Z,19.60
2023-10-07T08:23:30.523Z,19.60
2023-10-07T08:26:26.384Z,19.20
2023-10-07T08:29:04.509Z,19.60
2023-10-07T08:31:41.101Z,20.60
2023-10-07T08:34:08.910Z,20.30
2023-10-07T08:36:37.633Z,20.90
2023-10-07T08:39:11.948Z,21.40
2023-10-07T08:41:41.579Z,22.30
2023-10-07T08:44:16.752Z,22.90
2023-10-07T08:46:54.292Z,23.90
2023-10-07T08:49:28.330Z,23.50
2023-10-07T08:51:57.492Z,23.10
2023-10-07T08:54:28.300Z,22.60
2023-10-07T08:57:03.812Z,23.20
2023-10-07T08:59:34.084Z,21.40
2023-10-07T09:02:01.852Z,20.90
2023-10-07T09:04:33.253Z,20.60
2023-10-07T09:07:10.152Z,20.70
2023-10-07T09:09:45.270Z,20.80
2023-10-07T09:12:16.637Z,20.50
2023-10-07T09:14:58.669Z,20.80
2023-10-07T09:17:28.189Z,20.70
2023-10-07T09:19:59.649Z,20.40
2023-10-07T09:22:35.951Z,20.00
2023-10-07T09:25:18.885Z,19.80
2023-10-07T09:27:56.347Z,19.80
2023-10-07T09:30:43.135Z,19.70
2023-10-07T09:33:15.140Z,19.60
2023-10-07T09:35:44.693Z,19.50
2023-10-07T09:38:24.422Z,18.90
2023-10-07T09:40:58.215Z,18.70
2023-10-07T09:43:28.434Z,18.20
2023-10-07T09:45:59.380Z,18.20
2023-10-07T09:48:34.657Z,18.30
2023-10-07T09:51:03.590Z,18.20
2023-10-07T09:54:00.304Z,18.20
2023-10-07T09:57:07.386Z,18.20
2023-10-07T10:00:33.576Z,17.90
2023-10-07T10:03:22.521Z,18.00
2023-10-07T10:06:17.688Z,18.30
2023-10-07T10:08:56.915Z,18.90
2023-10-07T10:11:39.874Z,19.50
2023-10-07T10:14:16.345Z,20.70
2023-10-07T10:16:55.163Z,21.00
2023-10-07T10:19:38.445Z,21.10
2023-10-07T10:22:12.033Z,20.90
2023-10-07T10:24:43.784Z,21.10
2023-10-07T10:27:12.872Z,21.40
2023-10-07T10:30:04.818Z,22.20
2023-10-07T10:32:38.047Z,23.00
2023-10-07T10:35:12.378Z,23.60
2023-10-07T10:37:39.504Z,24.00
2023-10-07T10:40:18.519Z,24.70
2023-10-07T10:42:50.128Z,25.20
2023-10-07T10:45:27.757Z,25.60
2023-10-07T10:47:55.857Z,26.00
2023-10-07T10:50:30.417Z,25.90
2023-10-07T10:53:00.483Z,26.20
2023-10-07T10:55:39.297Z,25.70
2023-10-07T10:58:19.253Z,25.20
2023-10-07T11:00:50.914Z,25.20
2023-10-07T11:03:24.822Z,25.70
2023-10-07T11:05:55.636Z,25.60
2023-10-07T11:08:26.658Z,25.60
2023-10-07T11:11:00.366Z,25.20
2023-10-07T11:13:29.824Z,25.70
2023-10-07T11:16:11.406Z,26.40
2023-10-07T11:18:39.710Z,25.50
2023-10-07T11:21:13.658Z,25.40
2023-10-07T11:23:47.059Z,25.80
2023-10-07T11:26:13.941Z,25.90
2023-10-07T11:28:42.518Z,26.60
2023-10-07T11:31:09.374Z,26.10
2023-10-07T11:33:36.549Z,26.60
2023-10-07T11:36:04.680Z,27.30
2023-10-07T11:38:31.850Z,27.10
2023-10-07T11:41:00.931Z,26.80
2023-10-07T11:43:30.257Z,26.80
2023-10-07T11:45:57.733Z,27.30
2023-10-07T11:48:25.790Z,27.00
2023-10-07T11:50:52.713Z,26.60
2023-10-07T11:53:21.065Z,26.70
2023-10-07T11:55:48.282Z,26.80
2023-10-07T11:58:16.932Z,27.20
2023-10-07T12:00:44.080Z,27.40
2023-10-07T12:03:11.858Z,27.40
2023-10-07T12:05:42.816Z,27.40
2023-10-07T12:08:13.415Z,26.60
2023-10-07T12:10:40.923Z,26.20
2023-10-07T12:13:13.036Z,25.80
2023-10-07T12:16:01.224Z,26.20
2023-10-07T12:18:31.887Z,26.50
2023-10-07T12:21:02.005Z,25.60
2023-10-07T12:23:29.986Z,25.80
2023-10-07T12:25:58.806Z,26.00
2023-10-07T12:28:25.900Z,26.60
2023-10-07T12:30:53.356Z,27.30
2023-10-07T12:33:35.031Z,27.90
2023-10-07T12:36:16.546Z,27.80
2023-10-07T12:38:43.815Z,27.60
2023-10-07T12:41:11.175Z,27.90
2023-10-07T12:43:39.398Z,27.50
2023-10-07T12:46:10.820Z,27.00
2023-10-07T12:48:38.439Z,26.80
2023-10-07T12:51:05.300Z,26.40
2023-10-07T12:53:32.373Z,26.10
2023-10-07T12:55:59.623Z,25.50
2023-10-07T12:58:28.321Z,25.50
2023-10-07T13:00:56.380Z,24.70
2023-10-07T13:03:23.427Z,24.50
2023-10-07T13:05:50.667Z,24.80
2023-10-07T13:08:17.553Z,25.10
2023-10-07T13:10:44.785Z,25.20
2023-10-07T13:13:15.680Z,25.10
2023-10-07T13:15:43.750Z,24.80
2023-10-07T13:18:11.117Z,24.90
2023-10-07T13:20:40.325Z,25.00
2023-10-07T13:23:07.594Z,25.60
2023-10-07T13:25:36.211Z,25.70
2023-10-07T13:28:06.765Z,24.90
2023-10-07T13:30:36.463Z,25.10
2023-10-07T13:33:06.339Z,25.10
2023-10-07T13:35:34.645Z,25.20
2023-10-07T13:38:02.730Z,25.40
2023-10-07T13:40:31.556Z,25.50
2023-10-07T13:42:58.995Z,25.80
2023-10-07T13:45:29.679Z,26.10
2023-10-07T13:47:57.346Z,25.70
2023-10-07T13:50:27.052Z,25.60
2023-10-07T13:52:59.175Z,25.20
2023-10-07T13:55:55.326Z,25.00
2023-10-07T13:58:22.648Z,24.70
2023-10-07T14:00:53.024Z,25.00
2023-10-07T14:03:25.321Z,24.80
2023-10-07T14:05:56.708Z,24.40
2023-10-07T14:08:27.380Z,24.20
2023-10-07T14:11:00.533Z,24.10
2023-10-07T14:13:36.472Z,24.00
2023-10-07T14:16:19.599Z,23.70
2023-10-07T14:18:47.069Z,23.30
2023-10-07T14:21:14.273Z,23.30
2023-10-07T14:23:42.204Z,23.70
2023-10-07T14:26:13.926Z,24.20
2023-10-07T14:28:46.373Z,24.60
2023-10-07T14:31:18.217Z,24.80
2023-10-07T14:33:47.598Z,25.00
2023-10-07T14:36:14.951Z,25.10
2023-10-07T14:38:43.863Z,25.40
2023-10-07T14:41:12.745Z,25.40
2023-10-07T14:43:39.949Z,25.20
2023-10-07T14:46:12.379Z,25.60
2023-10-07T14:48:47.429Z,25.70
2023-10-07T14:51:18.186Z,25.50
2023-10-07T14:53:45.378Z,25.50
2023-10-07T14:56:17.442Z,25.40
2023-10-07T14:58:45.185Z,25.20
2023-10-07T15:01:14.948Z,24.80
2023-10-07T15:03:43.544Z,24.40
2023-10-07T15:06:12.475Z,24.10
2023-10-07T15:08:40.390Z,24.00
2023-10-07T15:11:08.847Z,23.90
2023-10-07T15:13:40.132Z,24.20
2023-10-07T15:16:14.838Z,24.50
2023-10-07T15:18:43.082Z,24.40
2023-10-07T15:21:13.265Z,24.50
2023-10-07T15:23:41.163Z,24.60
2023-10-07T15:26:18.312Z,24.40
2023-10-07T15:28:46.236Z,24.30
2023-10-07T15:31:23.890Z,24.20
2023-10-07T15:33:57.456Z,24.20
2023-10-07T15:36:25.707Z,24.10
2023-10-07T15:38:53.330Z,24.00
2023-10-07T15:41:21.008Z,23.70
2023-10-07T15:43:48.558Z,23.40
2023-10-07T15:46:17.779Z,23.30
2023-10-07T15:48:45.917Z,23.20
2023-10-07T15:51:15.334Z,23.00
2023-10-07T15:53:43.310Z,22.90
2023-10-07T15:56:19.314Z,22.50
2023-10-07T15:58:46.481Z,22.40
2023-10-07T16:01:13.741Z,22.20
2023-10-07T16:03:42.613Z,22.00
2023-10-07T16:06:09.968Z,21.90
2023-10-07T16:08:38.268Z,21.80
2023-10-07T16:11:15.707Z,21.50
2023-10-07T16:13:42.600Z,21.30
2023-10-07T16:16:10.401Z,21.10
2023-10-07T16:18:42.682Z,20.90
2023-10-07T16:21:15.285Z,20.60
2023-10-07T16:23:43.350Z,20.30
2023-10-07T16:26:14.960Z,20.10
2023-10-07T16:28:44.400Z,19.90
2023-10-07T16:31:11.743Z,19.60
2023-10-07T16:33:38.831Z,19.40
2023-10-07T16:36:07.891Z,19.10
2023-10-07T16:38:39.584Z,18.90
2023-10-07T16:41:07.664Z,18.70
2023-10-07T16:43:36.207Z,18.50
2023-10-07T16:46:08.525Z,18.20
2023-10-07T16:48:36.304Z,18.00
2023-10-07T16:51:07.659Z,17.70
2023-10-07T16:53:36.286Z,17.50
2023-10-07T16:56:07.932Z,17.30
2023-10-07T16:58:35.264Z,17.20
2023-10-07T17:01:02.816Z,17.10
2023-10-07T17:03:32.868Z,16.80
2023-10-07T17:06:02.214Z,16.60
2023-10-07T17:08:29.334Z,16.50
2023-10-07T17:10:58.240Z,16.40
2023-10-07T17:13:26.166Z,16.30
2023-10-07T17:15:54.336Z,16.40
2023-10-07T17:18:22.595Z,16.40
2023-10-07T17:20:50.666Z,16.30
2023-10-07T17:23:18.055Z,16.20
2023-10-07T17:25:47.031Z,16.10
2023-10-07T17:28:15.844Z,16.00
2023-10-07T17:30:49.274Z,16.10
2023-10-07T17:33:17.036Z,16.00
2023-10-07T17:35:44.949Z,16.00
2023-10-07T17:38:12.639Z,15.90
2023-10-07T17:40:41.344Z,15.90
2023-10-07T17:43:10.609Z,15.70
2023-10-07T17:45:40.378Z,15.70
2023-10-07T17:48:07.999Z,15.70
2023-10-07T17:50:36.042Z,15.50
2023-10-07T17:53:03.852Z,15.40
2023-10-07T17:55:32.138Z,15.30
2023-10-07T17:57:59.766Z,15.10
2023-10-07T18:00:30.748Z,15.00
2023-10-07T18:02:59.569Z,14.90
2023-10-07T18:05:27.977Z,14.80
2023-10-07T18:07:55.275Z,14.70
2023-10-07T18:10:23.554Z,14.70
2023-10-07T18:12:52.144Z,14.70
2023-10-07T18:15:19.493Z,14.80
2023-10-07T18:17:47.494Z,14.80
2023-10-07T18:20:15.863Z,14.80
2023-10-07T18:22:51.242Z,14.80
2023-10-07T18:25:21.358Z,14.80
2023-10-07T18:27:48.382Z,14.80
2023-10-07T18:30:16.063Z,14.90
2023-10-07T18:32:43.667Z,14.90
2023-10-07T18:35:11.408Z,14.90
2023-10-07T18:37:38.687Z,14.90
2023-10-07T18:40:07.455Z,14.90
2023-10-07T18:42:36.212Z,15.10
2023-10-07T18:45:03.563Z,15.10
2023-10-07T18:47:30.609Z,15.20
2023-10-07T18:49:57.716Z,15.10
2023-10-07T18:52:24.592Z,14.90
2023-10-07T18:54:51.461Z,14.80
2023-10-07T18:57:19.013Z,14.70
2023-10-07T18:59:48.996Z,14.50
2023-10-07T19:02:16.239Z,14.40
2023-10-07T19:04:43.434Z,14.40
2023-10-07T19:07:10.599Z,14.50
2023-10-07T19:09:38.353Z,14.50
2023-10-07T19:12:08.950Z,14.40
2023-10-07T19:14:35.785Z,14.40
2023-10-07T19:17:02.791Z,14.40
2023-10-07T19:19:29.583Z,14.40
2023-10-07T19:21:58.150Z,14.40
2023-10-07T19:24:28.131Z,14.50
2023-10-07T19:26:55.130Z,14.50
2023-10-07T19:29:22.308Z,14.50
2023-10-07T19:31:49.244Z,14.50
2023-10-07T19:34:17.478Z,14.40
2023-10-07T19:36:46.157Z,14.40
2023-10-07T19:39:18.581Z,14.30
2023-10-07T19:41:47.862Z,14.20
2023-10-07T19:44:14.717Z,14.20
2023-10-07T19:46:41.709Z,14.20
2023-10-07T19:49:08.943Z,14.10
2023-10-07T19:51:37.422Z,14.10
2023-10-07T19:54:05.620Z,14.20
2023-10-07T19:56:32.558Z,14.20
2023-10-07T19:58:59.447Z,14.00
2023-10-07T20:01:26.464Z,13.90
2023-10-07T20:03:56.179Z,13.80
2023-10-07T20:06:25.260Z,13.60
2023-10-07T20:08:52.843Z,13.50
2023-10-07T20:11:26.032Z,13.30
2023-10-07T20:13:53.532Z,13.00
2023-10-07T20:16:21.111Z,13.00
2023-10-07T20:18:48.142Z,12.90
2023-10-07T20:21:15.526Z,13.00
2023-10-07T20:23:42.609Z,13.00
2023-10-07T20:26:09.595Z,13.00
2023-10-07T20:28:37.222Z,13.00
2023-10-07T20:31:08.342Z,12.90
2023-10-07T20:33:35.538Z,12.90
2023-10-07T20:36:02.514Z,13.00
2023-10-07T20:38:29.441Z,13.10
2023-10-07T20:40:58.527Z,13.10
2023-10-07T20:43:28.617Z,13.10
2023-10-07T20:46:02.985Z,13.10
2023-10-07T20:48:31.042Z,13.10
2023-10-07T20:51:15.078Z,13.00
2023-10-07T20:53:44.465Z,13.00
2023-10-07T20:56:12.905Z,13.10
2023-10-07T20:58:40.251Z,13.10
2023-10-07T21:01:21.292Z,13.00
2023-10-07T21:03:50.045Z,13.00
2023-10-07T21:06:18.552Z,13.00
2023-10-07T21:08:46.215Z,13.00
2023-10-07T21:11:13.587Z,13.00
2023-10-07T21:13:41.410Z,13.00
2023-10-07T21:16:09.482Z,13.10
2023-10-07T21:18:38.282Z,13.10
2023-10-07T21:21:15.239Z,13.10
2023-10-07T21:23:47.726Z,13.00
2023-10-07T21:26:23.269Z,13.00
2023-10-07T21:28:52.200Z,12.90
2023-10-07T21:31:19.434Z,13.00
2023-10-07T21:33:46.582Z,13.00
2023-10-07T21:36:13.804Z,13.00
2023-10-07T21:38:40.964Z,13.00
2023-10-07T21:41:08.083Z,13.00
2023-10-07T21:43:35.090Z,12.90
2023-10-07T21:46:01.920Z,12.90
2023-10-07T21:48:28.889Z,12.90
2023-10-07T21:51:05.317Z,13.00
2023-10-07T21:53:32.121Z,13.10
2023-10-07T21:55:58.978Z,13.10
2023-10-07T21:58:26.822Z,13.10
2023-10-07T22:01:09.337Z,13.10
2023-10-07T22:03:37.974Z,13.20
2023-10-07T22:06:05.516Z,13.10
2023-10-07T22:08:32.570Z,13.10
2023-10-07T22:10:59.873Z,13.00
2023-10-07T22:13:28.902Z,13.00
2023-10-07T22:15:56.114Z,12.90
2023-10-07T22:18:24.686Z,12.80
2023-10-07T22:20:53.498Z,12.80
2023-10-07T22:23:22.862Z,12.80
2023-10-07T22:25:53.647Z,12.80
2023-10-07T22:28:21.813Z,12.80
2023-10-07T22:30:56.763Z,12.70
2023-10-07T22:33:26.387Z,12.60
2023-10-07T22:36:00.916Z,12.50
2023-10-07T22:38:27.907Z,12.40
2023-10-07T22:41:01.095Z,12.30
2023-10-07T22:43:36.277Z,12.30
2023-10-07T22:46:08.146Z,12.40
2023-10-07T22:48:36.926Z,12.50
2023-10-07T22:51:22.784Z,12.50
2023-10-07T22:54:02.768Z,12.50
2023-10-07T22:56:32.545Z,12.50
2023-10-07T22:59:02.961Z,12.50
2023-10-07T23:01:39.092Z,12.50
2023-10-07T23:04:18.051Z,12.60
2023-10-07T23:06:57.467Z,12.60
2023-10-07T23:09:38.161Z,12.60
2023-10-07T23:12:16.408Z,12.50
2023-10-07T23:14:47.912Z,12.40
2023-10-07T23:17:27.457Z,12.40
2023-10-07T23:19:57.575Z,12.40
2023-10-07T23:22:24.599Z,12.40
2023-10-07T23:25:15.021Z,12.40
2023-10-07T23:27:45.298Z,12.60
2023-10-07T23:30:27.275Z,12.60
2023-10-07T23:33:00.395Z,12.60
2023-10-07T23:35:42.167Z,12.50
2023-10-07T23:38:10.315Z,12.50
2023-10-07T23:40:37.942Z,12.40
2023-10-07T23:43:05.964Z,12.50
2023-10-07T23:45:40.467Z,12.40
2023-10-07T23:48:12.828Z,12.30
2023-10-07T23:50:44.404Z,12.30
2023-10-07T23:53:37.548Z,12.30
2023-10-07T23:56:13.806Z,12.30
2023-10-07T23:58:51.630Z,12.20
